Flight Track Log - Related Links

Times and Time Zones

All times are in EDT time to prevent confusion due to time zone crossing. See the AWE433 flight status page for this flight to view local times or setup timezone preferences in your user account.

Time Position Orientation Groundspeed Altitude Reporting Facility
EDT Latitude Longitude Course Direction KTS MPH feet Rate Location/Type
Wed 03:31:31 AM 36.0761 -115.1683 206° Southwest 170 196 3,000  Level Los Angeles Center
Wed 03:32:38 AM 36.0731 -115.2436 267° West 221 254 4,400 1,829 Climbing Los Angeles Center
Wed 03:33:16 AM 36.0419 -115.2664 211° Southwest 241 277 6,200 2,754 Climbing Los Angeles Center
Wed 03:33:39 AM 36.0142 -115.2711 188° South 237 273 7,200 1,900 Climbing Los Angeles Center
Wed 03:34:16 AM 35.9903 -115.2258 123° Southeast 265 305 8,100 2,103 Climbing Los Angeles Center
Wed 03:35:16 AM 35.9883 -115.1261 91° East 286 329 10,600 1,835 Climbing Los Angeles Center
Wed 03:36:17 AM 35.9825 -115.0114 94° East 320 368 11,800 1,636 Climbing Los Angeles Center
Wed 03:37:00 AM 36.0611 -115.1636 206° Southwest  Level FlightAware Approximate
Wed 03:37:17 AM 35.9756 -114.8797 94° East 373 429 13,900  Level Los Angeles Center
Wed 03:38:17 AM 35.9683 -114.7467 94° East 387 445 15,900 1,934 Climbing Los Angeles Center
Wed 03:39:18 AM 35.9611 -114.6072 94° East 406 467 17,800 1,785 Climbing Los Angeles Center
Wed 03:40:18 AM 35.9539 -114.4625 93° East 420 483 19,500 1,700 Climbing Los Angeles Center
Wed 03:41:18 AM 35.9456 -114.3169 94° East 426 490 21,200 1,550 Climbing Los Angeles Center
Wed 03:42:18 AM 35.9375 -114.1661 94° East 439 505 22,600 1,388 Climbing Los Angeles Center
Wed 03:43:19 AM 35.9292 -114.0131 94° East 447 514 24,000 1,289 Climbing Los Angeles Center
Wed 03:44:19 AM 35.9169 -113.8569 95° East 455 524 25,200 1,050 Climbing Los Angeles Center
Wed 03:45:19 AM 35.8908 -113.6997 102° East 467 537 26,100 1,050 Climbing Los Angeles Center
Wed 03:46:19 AM 35.8617 -113.5172 101° East 482 555 27,300 1,041 Climbing Los Angeles Center
Wed 03:47:20 AM 35.8356 -113.3539 101° East 486 559 28,200 942 Climbing Los Angeles Center
Wed 03:48:20 AM 35.8094 -113.1883 101° East 491 565 29,200 1,200 Climbing Los Angeles Center
Wed 03:49:20 AM 35.7819 -113.0208 101° East 495 570 30,600 1,100 Climbing Los Angeles Center
Wed 03:50:20 AM 35.7603 -112.8875 101° East 495 570 31,400 893 Climbing Los Angeles Center
Wed 03:51:21 AM 35.7328 -112.7211 101° East 493 567 32,400 793 Climbing Los Angeles Center
Wed 03:52:21 AM 35.7053 -112.5542 101° East 496 571 33,000 300 Climbing Los Angeles Center
Wed 03:53:21 AM 35.6769 -112.3819 101° East 508 585 33,000  Level Los Angeles Center
Wed 03:54:21 AM 35.6458 -112.2083 102° East 517 595 33,000  Level Los Angeles Center
Wed 03:55:23 AM 35.6103 -112.0025 102° East 517 595 33,000  Level Albuquerque Center
Wed 03:56:23 AM 35.5892 -111.8283 98° East 516 594 33,000  Level Albuquerque Center
Wed 03:57:23 AM 35.5853 -111.6536 92° East 514 592 33,000  Level Albuquerque Center
Wed 03:58:23 AM 35.5792 -111.4781 92° East 515 593 33,000  Level Albuquerque Center
Wed 03:59:23 AM 35.5744 -111.3061 92° East 517 595 33,000  Level Albuquerque Center
Wed 04:00:24 AM 35.5694 -111.1364 92° East 519 597 33,000  Level Albuquerque Center
Wed 04:01:24 AM 35.5614 -110.9378 93° East 521 600 33,000  Level Albuquerque Center
Wed 04:02:24 AM 35.5561 -110.7689 92° East 520 598 33,000  Level Albuquerque Center
Wed 04:03:24 AM 35.5503 -110.6006 92° East 519 597 33,000  Level Albuquerque Center
Wed 04:04:25 AM 35.5442 -110.4314 92° East 519 597 33,000  Level Albuquerque Center
Wed 04:05:25 AM 35.5375 -110.2364 92° East 514 592 33,000 -50 Level Albuquerque Center
Wed 04:06:25 AM 35.5297 -110.0667 93° East 518 596 32,900  Descending Albuquerque Center
Wed 04:07:25 AM 35.5233 -109.8972 93° East 521 600 33,000 100 Climbing Albuquerque Center
Wed 04:08:25 AM 35.5156 -109.6983 93° East 523 602 33,100  Climbing Albuquerque Center
Wed 04:09:26 AM 35.5078 -109.5283 93° East 523 602 33,000 -50 Descending Albuquerque Center
Wed 04:10:26 AM 35.5006 -109.3578 93° East 524 603 33,000  Level Albuquerque Center
Wed 04:11:26 AM 35.4919 -109.1900 94° East 520 598 33,000  Level Albuquerque Center
Wed 04:12:26 AM 35.4831 -108.9939 93° East 519 597 33,000  Level Albuquerque Center
Wed 04:13:26 AM 35.4783 -108.8256 92° East 519 597 33,000  Level Albuquerque Center
Wed 04:14:27 AM 35.4911 -108.6572 85° East 521 600 33,000  Level Albuquerque Center
Wed 04:15:27 AM 35.5031 -108.4619 86° East 519 597 33,000  Level Albuquerque Center
Wed 04:16:27 AM 35.5136 -108.2939 86° East 518 596 33,000  Level Albuquerque Center
Wed 04:17:27 AM 35.5236 -108.1244 86° East 521 600 33,000  Level Albuquerque Center
Wed 04:18:27 AM 35.5339 -107.9272 86° East 521 600 33,000  Level Albuquerque Center
Wed 04:19:28 AM 35.5431 -107.7550 86° East 525 604 33,000  Level Albuquerque Center
Wed 04:20:28 AM 35.5525 -107.5822 86° East 529 609 33,000  Level Albuquerque Center
Wed 04:21:28 AM 35.5614 -107.4097 86° East 530 610 33,000  Level Albuquerque Center
Wed 04:22:28 AM 35.5719 -107.2078 86° East 531 611 33,000  Level Albuquerque Center
Wed 04:23:28 AM 35.5803 -107.0400 86° East 532 612 33,000  Level Albuquerque Center
Wed 04:24:29 AM 35.5894 -106.8583 86° East 529 609 33,000  Level Albuquerque Center
Wed 04:25:29 AM 35.5978 -106.6778 87° East 527 606 33,000  Level Albuquerque Center
Wed 04:26:29 AM 35.6058 -106.4981 87° East 525 604 33,000  Level Albuquerque Center
Wed 04:27:29 AM 35.6153 -106.3222 86° East 518 596 33,000  Level Albuquerque Center
Wed 04:28:30 AM 35.6217 -106.1461 87° East 515 593 33,000  Level Albuquerque Center
Wed 04:29:30 AM 35.6286 -105.9717 87° East 512 589 33,000  Level Albuquerque Center
Wed 04:30:30 AM 35.6369 -105.7994 87° East 506 582 33,000  Level Albuquerque Center
Wed 04:31:30 AM 35.6439 -105.6267 87° East 506 582 33,000  Level Albuquerque Center
Wed 04:32:30 AM 35.6717 -105.4617 78° East 506 582 33,000  Level Albuquerque Center
Wed 04:33:31 AM 35.7003 -105.2906 78° East 505 581 33,000  Level Albuquerque Center
Wed 04:34:31 AM 35.7267 -105.1203 79° East 501 577 33,000  Level Albuquerque Center
Wed 04:35:31 AM 35.7531 -104.9517 79° East 498 573 33,000  Level Albuquerque Center
Wed 04:36:31 AM 35.7803 -104.7822 79° East 498 573 33,000  Level Albuquerque Center
Wed 04:37:31 AM 35.8078 -104.6122 79° East 498 573 33,000  Level Albuquerque Center
Wed 04:38:32 AM 35.8350 -104.4422 79° East 500 575 33,000  Level Albuquerque Center
Wed 04:39:32 AM 35.8622 -104.2722 79° East 499 574 33,000  Level Albuquerque Center
Wed 04:40:32 AM 35.8886 -104.1011 79° East 501 577 33,000  Level Albuquerque Center
Wed 04:41:32 AM 35.9150 -103.9317 79° East 499 574 33,000  Level Albuquerque Center
Wed 04:42:32 AM 35.9403 -103.7622 80° East 497 572 33,000  Level Albuquerque Center
Wed 04:43:33 AM 35.9614 -103.6228 79° East 494 568 33,000  Level Albuquerque Center
Wed 04:44:33 AM 35.9864 -103.4553 80° East 492 566 33,000  Level Albuquerque Center
Wed 04:45:33 AM 36.0108 -103.2883 80° East 490 564 33,000  Level Albuquerque Center
Wed 04:46:33 AM 36.0358 -103.1208 79° East 491 565 33,000  Level Albuquerque Center
Wed 04:47:33 AM 36.0592 -102.9539 80° East 489 563 33,000  Level Albuquerque Center
Wed 04:48:34 AM 36.0842 -102.7811 80° East 486 559 33,000  Level Albuquerque Center
Wed 04:49:34 AM 36.1075 -102.6167 80° East 487 560 33,000  Level Albuquerque Center
Wed 04:50:34 AM 36.1311 -102.4531 80° East 483 556 33,000  Level Albuquerque Center
Wed 04:51:34 AM 36.1536 -102.2892 80° East 483 556 33,000  Level Albuquerque Center
Wed 04:52:34 AM 36.1761 -102.1233 80° East 484 557 33,000  Level Albuquerque Center
Wed 04:53:35 AM 36.1986 -101.9583 80° East 486 559 33,000  Level Albuquerque Center
Wed 04:54:35 AM 36.2206 -101.7933 81° East 486 559 33,000  Level Albuquerque Center
Wed 04:55:35 AM 36.2422 -101.6297 81° East 483 556 33,000  Level Albuquerque Center
Wed 04:56:35 AM 36.2642 -101.4650 81° East 483 556 33,000  Level Albuquerque Center
Wed 04:57:35 AM 36.2864 -101.3006 80° East 484 557 33,000  Level Albuquerque Center
Wed 04:58:36 AM 36.3072 -101.1344 81° East 482 555 33,000  Level Albuquerque Center
Wed 04:59:36 AM 36.3267 -100.9767 81° East 484 557 33,000  Level Albuquerque Center
Wed 05:00:36 AM 36.3486 -100.8014 81° East 482 555 33,000  Level Albuquerque Center
Wed 05:01:00 AM 36.3515 -100.7841 81° East  Level FlightAware Approximate
Wed 05:01:36 AM 36.3694 -100.6367 81° East 482 555 33,000  Level Albuquerque Center
Wed 05:02:36 AM 36.3892 -100.4708 82° East 483 556 33,000  Level Albuquerque Center
Wed 05:03:36 AM 36.4100 -100.3039 81° East 486 559 33,000  Level Albuquerque Center
Wed 05:04:49 AM 36.4350 -100.1039 81° East 489 563 33,000  Level Kansas City Center
Wed 05:05:50 AM 36.4539 -99.9381 82° East 487 560 33,000  Level Kansas City Center
Wed 05:06:50 AM 36.4733 -99.7714 82° East 485 558 33,000  Level Kansas City Center
Wed 05:07:51 AM 36.4942 -99.6022 81° East 488 562 33,000  Level Kansas City Center
Wed 05:08:52 AM 36.5128 -99.4350 82° East 486 559 33,000  Level Kansas City Center
Wed 05:09:52 AM 36.5308 -99.2664 82° East 486 559 33,000  Level Kansas City Center
Wed 05:10:53 AM 36.5497 -99.0994 82° East 484 557 33,000  Level Kansas City Center
Wed 05:11:53 AM 36.5681 -98.9317 82° East 485 558 33,000  Level Kansas City Center
Wed 05:12:54 AM 36.5858 -98.7639 82° East 485 558 33,000  Level Kansas City Center
Wed 05:13:55 AM 36.6036 -98.5969 82° East 485 558 33,000  Level Kansas City Center
Wed 05:14:55 AM 36.6200 -98.4319 83° East 482 555 33,000  Level Kansas City Center
Wed 05:15:56 AM 36.6367 -98.2683 83° East 478 550 33,000  Level Kansas City Center
Wed 05:16:56 AM 36.6539 -98.1058 82° East 474 545 33,000  Level Kansas City Center
Wed 05:17:57 AM 36.6703 -97.9458 83° East 469 540 33,000  Level Kansas City Center
Wed 05:18:57 AM 36.6858 -97.7844 83° East 467 537 33,000  Level Kansas City Center
Wed 05:19:58 AM 36.7008 -97.6350 83° East 464 534 33,000 -49 Level Kansas City Center
Wed 05:20:59 AM 36.7158 -97.4789 83° East 460 529 32,900 -50 Descending Kansas City Center
Wed 05:21:59 AM 36.7314 -97.3158 83° East 459 528 32,900 50 Level Kansas City Center
Wed 05:23:00 AM 36.7464 -97.1544 83° East 464 534 33,000 50 Climbing Kansas City Center
Wed 05:24:00 AM 36.7758 -96.9900 77° East 462 532 33,000 50 Level Kansas City Center
Wed 05:25:01 AM 36.8033 -96.8314 78° East 466 536 33,100  Climbing Kansas City Center
Wed 05:26:01 AM 36.8308 -96.6728 78° East 465 535 33,000 -50 Descending Kansas City Center
Wed 05:27:02 AM 36.8572 -96.5172 78° East 460 529 33,000 347 Level Kansas City Center
Wed 05:28:02 AM 36.8733 -96.3553 83° East 470 541 33,700 843 Climbing Kansas City Center
Wed 05:29:03 AM 36.8819 -96.1911 86° East 474 545 34,700 639 Climbing Kansas City Center
Wed 05:30:04 AM 36.8906 -96.0247 86° East 475 547 35,000 149 Climbing Kansas City Center
Wed 05:31:04 AM 36.8981 -95.8561 87° East 480 552 35,000  Level Kansas City Center
Wed 05:32:05 AM 36.9072 -95.6853 86° East 485 558 35,000  Level Kansas City Center
Wed 05:33:05 AM 36.9336 -95.5172 79° East 486 559 35,000 50 Level Kansas City Center
Wed 05:34:06 AM 36.9622 -95.3511 78° East 485 558 35,100  Climbing Kansas City Center
Wed 05:35:06 AM 36.9878 -95.1869 79° East 480 552 35,000 -50 Descending Kansas City Center
Wed 05:36:07 AM 37.0147 -95.0206 78° East 482 555 35,000  Level Kansas City Center
Wed 05:37:07 AM 37.0411 -94.8558 79° East 482 555 35,000  Level Kansas City Center
Wed 05:38:08 AM 37.0658 -94.6911 79° East 481 554 35,000  Level Kansas City Center
Wed 05:39:08 AM 37.0894 -94.5281 80° East 477 549 35,000  Level Kansas City Center
Wed 05:40:09 AM 37.1150 -94.3664 79° East 473 544 35,000  Level Kansas City Center
Wed 05:41:09 AM 37.1403 -94.2081 79° East 466 536 35,000  Level Kansas City Center
Wed 05:42:10 AM 37.1642 -94.0439 80° East 468 539 35,000  Level Kansas City Center
Wed 05:43:10 AM 37.1881 -93.8800 80° East 473 544 35,000 50 Level Kansas City Center
Wed 05:44:11 AM 37.2136 -93.7164 79° East 477 549 35,100 50 Climbing Kansas City Center
Wed 05:45:11 AM 37.2375 -93.5547 79° East 472 543 35,100 -50 Level Kansas City Center
Wed 05:46:11 AM 37.2606 -93.3922 80° East 472 543 35,000 -50 Descending Kansas City Center
Wed 05:47:12 AM 37.2839 -93.2322 80° East 470 541 35,000  Level Kansas City Center
Wed 05:48:12 AM 37.3064 -93.0742 80° East 463 533 35,000 -50 Level Kansas City Center
Wed 05:49:13 AM 37.3283 -92.9186 80° East 457 526 34,900  Descending Kansas City Center
Wed 05:50:13 AM 37.3503 -92.7603 80° East 459 528 35,000 50 Climbing Kansas City Center
Wed 05:51:13 AM 37.3719 -92.6014 80° East 462 532 35,000  Level Kansas City Center
Wed 05:52:14 AM 37.3931 -92.4417 81° East 464 534 35,000 50 Level Kansas City Center
Wed 05:53:14 AM 37.4136 -92.2831 81° East 463 533 35,100  Climbing Kansas City Center
Wed 05:54:15 AM 37.4358 -92.1261 80° East 460 529 35,000 -50 Descending Kansas City Center
Wed 05:55:15 AM 37.4561 -91.9689 81° East 458 527 35,000  Level Kansas City Center
Wed 05:56:15 AM 37.4772 -91.8106 80° East 459 528 35,000  Level Kansas City Center
Wed 05:57:16 AM 37.4983 -91.6519 80° East 460 529 35,000  Level Kansas City Center
Wed 05:58:16 AM 37.5181 -91.4925 81° East 461 531 35,000  Level Kansas City Center
Wed 05:59:16 AM 37.5383 -91.3356 81° East 457 526 35,000  Level Kansas City Center
Wed 06:00:17 AM 37.5575 -91.1781 81° East 455 524 35,000 -50 Level Kansas City Center
Wed 06:01:17 AM 37.5775 -91.0222 81° East 453 521 34,900  Descending Kansas City Center
Wed 06:02:17 AM 37.5956 -90.8656 82° East 452 520 35,000 50 Climbing Kansas City Center
Wed 06:03:18 AM 37.6139 -90.7044 82° East 455 524 35,000  Level Kansas City Center
Wed 06:04:18 AM 37.6331 -90.5481 81° East 453 521 35,000  Level Kansas City Center
Wed 06:05:18 AM 37.6508 -90.3925 82° East 452 520 35,000  Level Kansas City Center
Wed 06:06:19 AM 37.6694 -90.2364 81° East 453 521 35,000  Level Kansas City Center
Wed 06:07:19 AM 37.6872 -90.0761 82° East 458 527 35,000  Level Kansas City Center
Wed 06:08:19 AM 37.7056 -89.9147 82° East 462 532 35,000  Level Kansas City Center
Wed 06:09:20 AM 37.7233 -89.7556 82° East 463 533 35,000  Level Kansas City Center
Wed 06:10:20 AM 37.7408 -89.5969 82° East 462 532 35,000  Level Kansas City Center
Wed 06:11:20 AM 37.7586 -89.4386 82° East 459 528 35,000  Level Kansas City Center
Wed 06:12:20 AM 37.7764 -89.2744 82° East 458 527 35,000  Level Kansas City Center
Wed 06:13:21 AM 37.7925 -89.1167 83° East 454 522 35,000  Level Kansas City Center
Wed 06:14:21 AM 37.8117 -88.9381 82° East 450 518 35,000  Level Kansas City Center
Wed 06:15:21 AM 37.8256 -88.7872 83° East 441 507 35,000  Level Kansas City Center
Wed 06:16:21 AM 37.8428 -88.6344 82° East 439 505 35,000  Level Kansas City Center
Wed 06:17:22 AM 37.8581 -88.4814 83° East 438 504 35,000  Level Kansas City Center
Wed 06:18:22 AM 37.8739 -88.3258 83° East 442 509 35,000  Level Kansas City Center
Wed 06:19:22 AM 37.8886 -88.1717 83° East 441 507 35,000  Level Kansas City Center
Wed 06:20:22 AM 37.9039 -88.0172 83° East 442 509 35,000  Level Kansas City Center
Wed 06:21:23 AM 37.9189 -87.8625 83° East 442 509 35,000  Level Kansas City Center
Wed 06:22:23 AM 37.9331 -87.7064 83° East 444 511 35,000  Level Kansas City Center
Wed 06:22:38 AM 37.9361 -87.6761 83° East 446 513 35,000  Level Indianapolis Center
Wed 06:23:39 AM 37.9500 -87.5194 84° East 447 514 35,000  Level Indianapolis Center
Wed 06:24:39 AM 37.9636 -87.3619 84° East 450 518 35,000 50 Level Indianapolis Center
Wed 06:25:40 AM 37.9761 -87.2061 84° East 449 517 35,100  Climbing Indianapolis Center
Wed 06:26:41 AM 37.9897 -87.0503 84° East 448 516 35,000 -50 Descending Indianapolis Center
Wed 06:27:41 AM 38.0022 -86.8969 84° East 442 509 35,000  Level Indianapolis Center
Wed 06:28:42 AM 38.0147 -86.7444 84° East 439 505 35,000  Level Indianapolis Center
Wed 06:29:43 AM 38.0297 -86.5606 84° East 438 504 35,000  Level Indianapolis Center
Wed 06:30:44 AM 38.0364 -86.4050 87° East 441 507 35,000 50 Level Indianapolis Center
Wed 06:31:44 AM 38.0325 -86.2503 92° East 440 506 35,100  Climbing Indianapolis Center
Wed 06:32:45 AM 38.0281 -86.0972 92° East 435 501 35,000 -49 Descending Indianapolis Center
Wed 06:33:46 AM 38.0242 -85.9431 92° East 435 501 35,000  Level Indianapolis Center
Wed 06:34:46 AM 38.0194 -85.7914 92° East 430 495 35,000  Level Indianapolis Center
Wed 06:35:47 AM 38.0142 -85.6397 92° East 432 497 35,000  Level Indianapolis Center
Wed 06:36:48 AM 38.0103 -85.4878 92° East 431 496 35,000  Level Indianapolis Center
Wed 06:37:49 AM 38.0050 -85.3347 92° East 433 498 35,000  Level Indianapolis Center
Wed 06:38:50 AM 37.9989 -85.1919 93° East 431 496 35,000  Level Indianapolis Center
Wed 06:39:50 AM 37.9939 -85.0389 92° East 433 498 35,000  Level Indianapolis Center
Wed 06:40:51 AM 37.9875 -84.8592 93° East 437 503 35,000  Level Indianapolis Center
Wed 06:41:52 AM 37.9811 -84.7056 93° East 435 501 35,000  Level Indianapolis Center
Wed 06:42:53 AM 37.9739 -84.5528 93° East 434 499 35,000  Level Indianapolis Center
Wed 06:43:53 AM 37.9681 -84.4019 93° East 429 494 35,000  Level Indianapolis Center
Wed 06:44:54 AM 37.9608 -84.2486 93° East 433 498 35,000  Level Indianapolis Center
Wed 06:45:55 AM 37.9533 -84.0928 93° East 440 506 35,000  Level Indianapolis Center
Wed 06:46:56 AM 37.9469 -83.9367 93° East 444 511 35,000  Level Indianapolis Center
Wed 06:47:57 AM 37.9400 -83.7781 93° East 449 517 35,000  Level Indianapolis Center
Wed 06:48:57 AM 37.9311 -83.6233 94° East 441 507 35,000  Level Indianapolis Center
Wed 06:49:58 AM 37.9236 -83.4694 93° East 437 503 35,000  Level Indianapolis Center
Wed 06:50:59 AM 37.9150 -83.3167 94° East 432 497 35,000  Level Indianapolis Center
Wed 06:52:00 AM 37.9075 -83.1644 94° East 433 498 35,000  Level Indianapolis Center
Wed 06:53:01 AM 37.8994 -83.0078 94° East 439 505 35,000  Level Indianapolis Center
Wed 06:54:02 AM 37.8906 -82.8506 94° East 443 510 35,000  Level Indianapolis Center
Wed 06:55:02 AM 37.8817 -82.6942 94° East 446 513 35,000  Level Indianapolis Center
Wed 06:56:03 AM 37.8739 -82.5358 94° East 449 517 35,000  Level Indianapolis Center
Wed 06:57:04 AM 37.8631 -82.3761 95° East 453 521 35,000  Level Indianapolis Center
Wed 06:58:05 AM 37.8539 -82.2161 94° East 454 522 35,000  Level Indianapolis Center
Wed 06:59:06 AM 37.8436 -82.0533 95° East 461 531 35,000  Level Indianapolis Center
Wed 07:00:07 AM 37.8328 -81.8933 95° East 456 525 35,000  Level Indianapolis Center
Wed 07:01:08 AM 37.8228 -81.7347 95° East 453 521 35,000  Level Indianapolis Center
Wed 07:02:08 AM 37.8108 -81.5489 95° East 452 520 35,000  Level Indianapolis Center
Wed 07:03:09 AM 37.7994 -81.3936 95° East 446 513 35,000  Level Indianapolis Center
Wed 07:03:31 AM 37.7942 -81.3658 104° East 453 521 35,000  Level Washington Center
Wed 07:04:29 AM 37.7853 -81.2072 94° East 448 516 35,000  Level Washington Center
Wed 07:05:30 AM 37.7839 -81.0522 91° East 448 516 35,000  Level Washington Center
Wed 07:06:30 AM 37.7961 -80.8744 85° East 448 516 35,000  Level Washington Center
Wed 07:07:31 AM 37.8069 -80.7200 85° East 443 510 35,000  Level Washington Center
Wed 07:08:29 AM 37.8181 -80.5603 85° East 443 510 35,000  Level Washington Center
Wed 07:09:30 AM 37.8286 -80.3981 85° East 443 510 35,000  Level Washington Center
Wed 07:10:31 AM 37.8364 -80.2567 86° East 454 522 35,000  Level Washington Center
Wed 07:11:29 AM 37.8489 -80.0969 84° East 459 528 35,000 -454 Level Washington Center
Wed 07:12:30 AM 37.8589 -79.9369 85° East 459 528 34,100 -934 Descending Washington Center
Wed 07:13:31 AM 37.8667 -79.7769 86° East 459 528 33,100 -559 Descending Washington Center
Wed 07:14:28 AM 37.8764 -79.6169 86° East 459 528 33,000 -51 Descending Washington Center
Wed 07:15:29 AM 37.8864 -79.4411 86° East 459 528 33,000  Level Washington Center
Wed 07:16:30 AM 37.8956 -79.2811 86° East 459 528 33,000  Level Washington Center
Wed 07:17:30 AM 37.9044 -79.1183 86° East 459 528 33,000  Level Washington Center
Wed 07:18:31 AM 37.9217 -78.9561 82° East 459 528 33,000  Level Washington Center
Wed 07:19:28 AM 37.9406 -78.7989 81° East 459 528 33,000  Level Washington Center
Wed 07:20:29 AM 37.9614 -78.6392 81° East 459 528 33,000  Level Washington Center
Wed 07:21:30 AM 37.9775 -78.4922 82° East 466 536 33,000  Level Washington Center
Wed 07:22:28 AM 37.9981 -78.3322 81° East 461 531 33,000  Level Washington Center
Wed 07:23:29 AM 38.0225 -78.1672 79° East 455 524 33,000  Level Washington Center
Wed 07:24:29 AM 38.0778 -78.0264 63° Northeast 434 499 33,000  Level Washington Center
Wed 07:25:31 AM 38.1472 -77.8889 57° Northeast 439 505 33,000 -300 Level Washington Center
Wed 07:26:29 AM 38.2142 -77.7533 58° Northeast 444 511 32,400 -814 Descending Washington Center
Wed 07:27:29 AM 38.2792 -77.6206 58° Northeast 449 517 31,400 -942 Descending Washington Center
Wed 07:28:30 AM 38.3397 -77.4925 59° Northeast 438 504 30,500 -958 Descending Washington Center
Wed 07:29:28 AM 38.3500 -77.3550 85° East 400 460 29,500 -958 Descending Washington Center
Wed 07:30:29 AM 38.3561 -77.2200 87° East 386 444 28,600 -1,672 Descending Washington Center
Wed 07:31:30 AM 38.3828 -77.0961 75° East 381 438 26,100 -1,672 Descending Washington Center
Wed 07:32:31 AM 38.4567 -77.0156 40° Northeast 363 418 25,200 -958 Descending Washington Center
Wed 07:33:29 AM 38.5347 -76.9294 41° Northeast 363 418 24,200 -605 Descending Washington Center
Wed 07:34:30 AM 38.6128 -76.8458 40° Northeast 363 418 24,000 -545 Descending Washington Center
Wed 07:35:30 AM 38.6889 -76.7592 42° Northeast 363 418 23,100 -1,339 Descending Washington Center
Wed 07:36:31 AM 38.7253 -76.6453 68° East 344 396 21,300 -1,576 Descending Washington Center
Wed 07:37:28 AM 38.7492 -76.5258 76° East 338 389 20,000 -1,119 Descending Washington Center
Wed 07:38:29 AM 38.7753 -76.3983 75° East 346 398 19,100 -1,426 Descending Washington Center
Wed 07:39:30 AM 38.8031 -76.2683 75° East 363 418 17,100 -1,983 Descending Washington Center
Wed 07:40:30 AM 38.8308 -76.1353 75° East 375 432 15,100 -1,041 Descending Washington Center
Wed 07:41:31 AM 38.8564 -76.0075 76° East 375 432 15,000 -397 Descending Washington Center
Wed 07:42:31 AM 38.8839 -75.8878 74° East 364 419 14,300 -1,385 Descending Washington Center
Wed 07:43:28 AM 38.9464 -75.7864 52° Northeast 350 403 12,300 -1,525 Descending Washington Center
Wed 07:44:29 AM 39.0236 -75.7144 36° Northeast 336 387 11,300 -927 Descending Washington Center
Wed 07:45:31 AM 39.1133 -75.6744 19° North 336 387 10,400 -438 Descending Washington Center
Wed 07:47:27 AM 39.3000 -75.6500 North 308 354 10,000 -375 Descending Philadelphia TRACON
Wed 07:48:27 AM 39.3833 -75.6167 17° North 303 349 9,300 -1,100 Descending Philadelphia TRACON
Wed 07:49:27 AM 39.4500 -75.5833 21° North 294 338 7,800 -1,150 Descending Philadelphia TRACON
Wed 07:50:27 AM 39.5333 -75.5667 North 288 331 7,000 -900 Descending Philadelphia TRACON
Wed 07:51:27 AM 39.6000 -75.5833 349° North 285 328 6,000 -850 Descending Philadelphia TRACON
Wed 07:52:27 AM 39.6833 -75.6000 351° North 238 274 5,300 -1,000 Descending Philadelphia TRACON
Wed 07:53:27 AM 39.7333 -75.5833 14° North 230 265 4,000 -700 Descending Philadelphia TRACON
Wed 07:54:27 AM 39.7833 -75.5333 38° Northeast 226 260 3,900 -100 Descending Philadelphia TRACON

Login

Don't have an account? Register now (free) for customized features, flight alerts, and more!